Time;durP1;ratioP1;P1;durP2;ratioP2;P2;SDS_P1;SDS_P2;PMS_P1;PMS_P2;Temp;Humidity;BMP_temperature;BMP_pressure;BME280_temperature;BME280_humidity;BME280_pressure;Samples;Min_cycle;Max_cycle;Signal;HPM_P1;HPM_P2
2023/07/09 00:01:57;;;;;;;4.67;2.97;;;;;;;19.35;100.00;99383.50;4950685;28;20221;-75
2023/07/09 00:04:25;;;;;;;5.43;2.83;;;;;;;19.32;100.00;99383.00;4950688;29;20208;-75
2023/07/09 00:06:53;;;;;;;6.40;3.10;;;;;;;19.25;100.00;99382.00;4951187;29;20304;-75
2023/07/09 00:09:22;;;;;;;3.70;2.73;;;;;;;19.23;100.00;99384.78;4952249;29;20220;-75
2023/07/09 00:11:51;;;;;;;5.77;3.40;;;;;;;19.16;100.00;99383.78;4952058;29;20259;-75
2023/07/09 00:14:18;;;;;;;4.70;2.80;;;;;;;19.16;100.00;99384.59;4940104;28;20684;-75
2023/07/09 00:16:48;;;;;;;4.50;3.20;;;;;;;19.23;100.00;99374.41;4933018;29;20213;-75
2023/07/09 00:19:18;;;;;;;4.27;2.67;;;;;;;19.30;100.00;99379.75;4932865;29;20212;-75
2023/07/09 00:21:49;;;;;;;4.33;3.30;;;;;;;19.27;100.00;99369.72;4933021;29;20257;-75
2023/07/09 00:30:59;;;;;;;4.03;3.17;;;;;;;18.93;100.00;99383.56;4950151;29;20776;-75
2023/07/09 00:36:50;;;;;;;6.13;3.20;;;;;;;18.82;100.00;99386.44;4932280;29;20232;-76
2023/07/09 00:39:18;;;;;;;5.53;3.13;;;;;;;18.76;100.00;99388.69;4932408;29;20673;-76
2023/07/09 00:45:18;;;;;;;4.70;3.10;;;;;;;18.61;100.00;99394.56;4933635;29;20807;-75
2023/07/09 00:51:12;;;;;;;4.67;3.27;;;;;;;18.55;100.00;99388.22;4969521;28;20271;-76
2023/07/09 00:53:45;;;;;;;7.77;3.50;;;;;;;18.51;100.00;99389.50;4951612;28;20219;-75
2023/07/09 01:00:14;;;;;;;4.90;3.43;;;;;;;18.31;100.00;99388.91;4951153;29;20708;-76
2023/07/09 01:02:44;;;;;;;5.03;3.07;;;;;;;18.21;100.00;99394.22;4948730;29;20301;-76
2023/07/09 01:05:14;;;;;;;6.83;3.90;;;;;;;18.20;100.00;99397.75;4951055;29;20289;-76
2023/07/09 01:07:41;;;;;;;6.70;3.13;;;;;;;18.21;100.00;99399.38;4950957;29;20207;-76
2023/07/09 01:10:10;;;;;;;4.97;3.40;;;;;;;18.22;100.00;99401.00;4950802;29;20216;-76
2023/07/09 01:12:37;;;;;;;4.80;3.20;;;;;;;18.23;100.00;99402.59;4954707;28;20208;-76
2023/07/09 01:15:04;;;;;;;5.10;2.97;;;;;;;18.27;100.00;99398.78;4969473;28;20203;-76
2023/07/09 01:17:31;;;;;;;7.00;3.60;;;;;;;18.31;100.00;99397.50;4970271;28;20211;-75
2023/07/09 01:19:58;;;;;;;5.87;3.37;;;;;;;18.37;100.00;99393.47;4965227;28;20210;-75
2023/07/09 01:29:10;;;;;;;4.90;2.83;;;;;;;18.39;100.00;99416.63;4931528;29;20222;-75
2023/07/09 01:39:16;;;;;;;7.73;3.33;;;;;;;18.17;100.00;99423.94;4947842;28;20221;-75
2023/07/09 01:41:45;;;;;;;6.47;3.13;;;;;;;18.13;100.00;99427.78;4950648;29;20760;-75
2023/07/09 01:44:13;;;;;;;5.47;3.73;;;;;;;18.02;100.00;99428.03;4950311;29;20676;-75
2023/07/09 01:46:41;;;;;;;5.63;2.90;;;;;;;17.99;100.00;99436.09;4950405;29;20196;-75
2023/07/09 01:49:08;;;;;;;8.70;3.77;;;;;;;17.93;100.00;99447.84;4950149;29;20235;-75
2023/07/09 01:52:09;;;;;;;6.23;3.27;;;;;;;17.85;100.00;99440.00;4952349;28;20293;-75
2023/07/09 01:54:37;;;;;;;5.00;3.40;;;;;;;17.83;100.00;99442.75;4950615;28;20214;-76
2023/07/09 01:57:16;;;;;;;4.57;3.37;;;;;;;17.85;100.00;99440.81;4950066;29;20665;-75
2023/07/09 02:06:31;;;;;;;6.23;3.43;;;;;;;17.76;100.00;99436.50;4950077;29;20229;-75
2023/07/09 02:08:58;;;;;;;5.37;3.40;;;;;;;17.84;100.00;99436.63;4949996;29;20206;-76
2023/07/09 02:11:25;;;;;;;4.90;3.30;;;;;;;17.79;100.00;99438.84;4936607;29;20247;-75
2023/07/09 02:13:52;;;;;;;5.93;3.47;;;;;;;17.88;100.00;99439.72;4943025;28;20221;-75
2023/07/09 02:16:19;;;;;;;4.90;3.20;;;;;;;17.90;100.00;99434.41;4950155;29;20202;-76
2023/07/09 02:18:46;;;;;;;6.33;3.03;;;;;;;17.88;100.00;99440.53;4950165;29;20206;-75
2023/07/09 02:21:12;;;;;;;5.27;3.30;;;;;;;17.88;100.00;99435.34;4950095;29;20594;-76
2023/07/09 02:23:41;;;;;;;4.30;3.07;;;;;;;17.91;100.00;99438.59;4949699;29;20206;-76
2023/07/09 02:26:08;;;;;;;4.27;2.93;;;;;;;17.95;100.00;99434.75;4949886;28;20217;-75
2023/07/09 02:28:34;;;;;;;6.00;3.57;;;;;;;17.91;100.00;99441.19;4949852;29;20207;-75
2023/07/09 02:31:01;;;;;;;13.90;3.57;;;;;;;17.73;100.00;99441.16;4947192;29;20227;-75
2023/07/09 02:33:32;;;;;;;6.60;3.20;;;;;;;17.57;100.00;99452.16;4950060;29;20205;-75
2023/07/09 02:35:59;;;;;;;6.20;3.70;;;;;;;17.70;100.00;99473.31;4940083;28;20225;-75
2023/07/09 02:38:26;;;;;;;8.20;3.20;;;;;;;17.65;100.00;99472.94;4930603;29;20221;-75
2023/07/09 02:40:54;;;;;;;5.17;3.33;;;;;;;17.63;100.00;99460.16;4930814;29;20203;-75
2023/07/09 02:43:21;;;;;;;4.87;3.57;;;;;;;17.62;100.00;99470.63;4930496;29;20210;-75
2023/07/09 02:45:48;;;;;;;5.07;3.07;;;;;;;17.61;100.00;99471.59;4930428;29;20612;-75
2023/07/09 02:48:15;;;;;;;5.07;3.07;;;;;;;17.58;100.00;99464.16;4936331;28;20216;-74
2023/07/09 02:50:42;;;;;;;5.33;3.70;;;;;;;17.51;100.00;99468.25;4930406;29;20237;-74
2023/07/09 02:53:08;;;;;;;6.77;3.43;;;;;;;17.53;100.00;99471.53;4933724;29;20596;-75
2023/07/09 02:55:35;;;;;;;5.13;3.23;;;;;;;17.58;100.00;99464.16;4957138;28;20216;-74
2023/07/09 02:58:03;;;;;;;6.30;3.70;;;;;;;17.54;100.00;99478.31;4949373;29;20221;-74
2023/07/09 03:00:30;;;;;;;4.83;3.10;;;;;;;17.51;100.00;99473.44;4949434;29;20692;-74
2023/07/09 03:02:57;;;;;;;7.03;3.30;;;;;;;17.52;100.00;99477.66;4949088;29;20215;-73
2023/07/09 03:05:24;;;;;;;12.57;3.20;;;;;;;17.52;100.00;99481.06;4959302;28;20208;-74
2023/07/09 03:07:51;;;;;;;6.83;3.47;;;;;;;17.51;100.00;99484.59;4966951;28;20200;-74
2023/07/09 03:10:18;;;;;;;4.43;3.23;;;;;;;17.49;100.00;99486.50;4967665;28;20679;-74
2023/07/09 03:12:44;;;;;;;4.47;3.07;;;;;;;17.47;100.00;99487.63;4968229;28;20240;-74
2023/07/09 03:15:13;;;;;;;6.97;3.43;;;;;;;17.51;100.00;99494.09;4967726;28;20614;-74
2023/07/09 03:17:40;;;;;;;5.87;3.40;;;;;;;17.51;100.00;99494.09;4957770;28;20205;-75
2023/07/09 03:20:08;;;;;;;4.90;3.33;;;;;;;17.40;100.00;99488.19;4949159;28;20463;-74
2023/07/09 03:22:35;;;;;;;5.97;3.50;;;;;;;17.41;100.00;99489.81;4960711;28;20233;-74
2023/07/09 03:25:02;;;;;;;6.07;3.40;;;;;;;17.43;100.00;99492.28;4968756;28;20212;-74
2023/07/09 03:27:29;;;;;;;4.93;3.17;;;;;;;17.40;100.00;99493.38;4968616;28;20211;-74
2023/07/09 03:29:55;;;;;;;5.13;2.87;;;;;;;17.41;100.00;99494.19;4968646;28;20207;-74
2023/07/09 03:32:24;;;;;;;6.53;3.50;;;;;;;17.46;100.00;99498.94;4968318;28;20241;-74
2023/07/09 03:34:52;;;;;;;5.17;3.30;;;;;;;17.51;100.00;99496.69;4968380;28;20208;-74
2023/07/09 03:37:19;;;;;;;6.13;3.00;;;;;;;17.56;100.00;99491.91;4967065;28;20320;-75
2023/07/09 03:39:46;;;;;;;7.50;3.17;;;;;;;17.59;100.00;99496.78;4956323;28;20269;-74
2023/07/09 03:42:13;;;;;;;5.00;3.33;;;;;;;17.56;100.00;99497.88;4969014;28;20229;-74
2023/07/09 03:44:40;;;;;;;5.20;3.37;;;;;;;17.60;100.00;99491.50;4971720;28;20201;-74
2023/07/09 03:47:08;;;;;;;7.30;4.43;;;;;;;17.57;100.00;99483.19;4972006;28;20198;-74
2023/07/09 03:49:36;;;;;;;14.67;7.43;;;;;;;17.57;100.00;99489.19;4972113;28;20220;-74
2023/07/09 03:52:03;;;;;;;14.20;7.53;;;;;;;17.52;100.00;99496.56;4971508;28;20239;-74
2023/07/09 03:54:30;;;;;;;8.30;4.20;;;;;;;17.46;100.00;99486.00;4956206;28;20209;-75
2023/07/09 03:56:57;;;;;;;5.67;3.83;;;;;;;17.48;100.00;99484.88;4949844;28;20214;-75
2023/07/09 03:59:24;;;;;;;6.27;3.90;;;;;;;17.50;100.00;99487.31;4939107;28;20218;-75
2023/07/09 04:01:51;;;;;;;5.63;3.27;;;;;;;17.40;100.00;99493.38;4933175;29;20211;-75
2023/07/09 04:04:20;;;;;;;8.63;3.63;;;;;;;17.43;100.00;99493.06;4933017;29;20213;-75
2023/07/09 04:06:48;;;;;;;6.20;3.83;;;;;;;17.47;100.00;99490.19;4932883;29;20276;-75
2023/07/09 04:09:15;;;;;;;9.87;3.83;;;;;;;17.63;100.00;99493.78;4933097;29;20207;-74
2023/07/09 04:11:41;;;;;;;5.50;3.30;;;;;;;17.79;100.00;99495.72;4932566;29;20238;-74
2023/07/09 04:14:08;;;;;;;6.20;3.30;;;;;;;17.81;100.00;99491.22;4945544;29;20217;-75
2023/07/09 04:16:35;;;;;;;5.83;3.70;;;;;;;17.82;100.00;99492.84;4951908;29;20212;-75
2023/07/09 04:19:02;;;;;;;4.87;3.30;;;;;;;17.83;100.00;99494.50;4947421;28;20213;-75
2023/07/09 04:21:29;;;;;;;10.07;3.57;;;;;;;17.85;100.00;99492.56;4932989;29;20755;-75
2023/07/09 04:23:57;;;;;;;5.17;3.43;;;;;;;17.84;100.00;99496.09;4932552;29;20211;-74
2023/07/09 04:26:24;;;;;;;6.83;3.63;;;;;;;17.88;100.00;99502.59;4932748;29;20242;-75
2023/07/09 04:28:51;;;;;;;5.87;3.40;;;;;;;17.96;100.00;99499.28;4935459;29;20216;-75
2023/07/09 04:31:18;;;;;;;5.73;3.20;;;;;;;18.03;100.00;99504.69;4950771;29;20215;-77
2023/07/09 04:33:45;;;;;;;6.03;3.57;;;;;;;18.04;100.00;99506.31;4951461;29;20206;-75
2023/07/09 04:36:12;;;;;;;5.40;3.33;;;;;;;18.12;100.00;99508.94;4951565;29;20440;-75
2023/07/09 04:38:39;;;;;;;6.47;3.60;;;;;;;18.29;100.00;99515.88;4953790;28;20196;-75
2023/07/09 04:41:07;;;;;;;5.97;3.80;;;;;;;18.35;100.00;99513.66;4933224;28;20211;-75
2023/07/09 04:43:34;;;;;;;5.47;3.63;;;;;;;18.50;100.00;99517.34;4932501;29;20211;-75
2023/07/09 04:46:01;;;;;;;6.40;3.77;;;;;;;18.64;100.00;99514.19;4941024;28;20211;-75
2023/07/09 04:48:28;;;;;;;5.10;3.37;;;;;;;18.75;100.00;99520.94;4970864;28;20495;-75
2023/07/09 04:50:55;;;;;;;5.90;3.40;;;;;;;18.83;100.00;99520.19;4970551;28;20610;-75
2023/07/09 04:53:23;;;;;;;6.63;3.60;;;;;;;18.95;100.00;99522.34;4970993;28;20259;-75
2023/07/09 04:55:50;;;;;;;5.27;3.50;;;;;;;19.14;100.00;99526.50;4970587;28;20208;-75
2023/07/09 04:58:19;;;;;;;7.77;3.63;;;;;;;19.38;100.00;99537.94;4970602;28;20408;-75
2023/07/09 05:00:46;;;;;;;6.27;3.87;;;;;;;19.60;100.00;99546.94;4948437;28;20211;-76
2023/07/09 05:03:13;;;;;;;6.73;3.50;;;;;;;19.75;100.00;99547.16;4933139;29;20210;-75
2023/07/09 05:05:43;;;;;;;5.23;3.60;;;;;;;19.86;100.00;99549.44;4949992;29;20235;-76
2023/07/09 05:08:10;;;;;;;5.47;3.50;;;;;;;19.92;100.00;99551.41;4951082;29;20210;-76
2023/07/09 05:10:42;;;;;;;5.17;3.33;;;;;;;20.13;100.00;99544.00;4951247;29;20209;-76
2023/07/09 05:13:09;;;;;;;7.97;3.47;;;;;;;20.35;100.00;99546.91;4951446;29;20226;-76
2023/07/09 05:15:41;;;;;;;5.77;3.50;;;;;;;20.44;100.00;99545.94;4950972;29;20207;-76
2023/07/09 05:18:08;;;;;;;6.17;4.10;;;;;;;20.42;100.00;99549.66;4950686;29;20213;-76
2023/07/09 05:20:35;;;;;;;4.33;3.30;;;;;;;20.50;100.00;99545.28;4949551;28;20209;-76
2023/07/09 05:23:02;;;;;;;6.23;3.80;;;;;;;20.56;100.00;99552.44;4950837;29;20208;-76
2023/07/09 05:25:29;;;;;;;6.30;3.83;;;;;;;20.54;100.00;99544.03;4950686;29;20606;-76
2023/07/09 05:27:56;;;;;;;4.73;3.60;;;;;;;20.67;100.00;99550.50;4950977;29;20203;-76
2023/07/09 05:30:23;;;;;;;5.43;3.80;;;;;;;20.64;100.00;99553.41;4951016;29;20208;-76
2023/07/09 05:32:53;;;;;;;5.83;3.50;;;;;;;20.77;100.00;99545.94;4950494;29;20228;-76
2023/07/09 05:35:20;;;;;;;6.10;3.70;;;;;;;20.82;100.00;99548.84;4951016;29;20209;-76
2023/07/09 05:37:47;;;;;;;5.00;3.20;;;;;;;20.86;100.00;99546.75;4950425;28;20499;-76
2023/07/09 05:40:14;;;;;;;4.67;3.70;;;;;;;21.05;100.00;99545.53;4950718;29;20206;-76
2023/07/09 05:42:41;;;;;;;5.93;3.63;;;;;;;21.18;100.00;99545.84;4948187;29;20201;-76
2023/07/09 05:45:09;;;;;;;5.63;3.83;;;;;;;21.02;100.00;99539.69;4950307;29;20950;-77
2023/07/09 05:47:36;;;;;;;7.77;3.50;;;;;;;21.11;100.00;99542.28;4950592;29;20221;-76
2023/07/09 05:50:05;;;;;;;6.80;3.70;;;;;;;21.27;100.00;99541.41;4948359;29;20206;-76
2023/07/09 05:52:32;;;;;;;4.77;3.47;;;;;;;21.45;100.00;99535.00;4943028;28;20643;-76
2023/07/09 05:55:00;;;;;;;6.53;3.53;;;;;;;21.65;100.00;99537.19;4950158;29;20205;-76
2023/07/09 05:57:27;;;;;;;4.90;3.97;;;;;;;21.81;100.00;99542.28;4950125;29;20198;-76
2023/07/09 05:59:54;;;;;;;4.88;3.58;;;;;;;21.97;100.00;99537.97;4947492;28;20226;-75
2023/07/09 06:02:22;;;;;;;5.20;3.75;;;;;;;22.13;100.00;99543.06;4949982;29;20205;-76
2023/07/09 06:04:49;;;;;;;4.90;3.70;;;;;;;22.26;100.00;99537.31;4950000;29;20206;-76
2023/07/09 06:07:18;;;;;;;4.15;3.50;;;;;;;22.46;100.00;99538.44;4950127;29;20206;-75
2023/07/09 06:09:46;;;;;;;6.15;4.30;;;;;;;22.71;100.00;99536.41;4937017;28;20275;-76
2023/07/09 06:12:13;;;;;;;4.53;3.42;;;;;;;22.77;99.33;99535.69;4930702;29;20235;-76
2023/07/09 06:28:33;;;;;;;5.80;3.83;;;;;;;23.59;92.31;99545.22;4930877;29;20281;-76
2023/07/09 06:31:00;;;;;;;4.50;3.55;;;;;;;23.76;91.24;99550.22;4930291;29;20210;-76
2023/07/09 06:33:28;;;;;;;4.40;3.33;;;;;;;23.95;91.00;99552.22;4931097;29;20242;-76
2023/07/09 06:35:58;;;;;;;5.50;3.90;;;;;;;24.09;90.89;99550.56;4953820;28;20233;-75
2023/07/09 06:38:24;;;;;;;4.38;3.42;;;;;;;24.05;88.44;99550.09;4952958;28;20583;-74
2023/07/09 06:40:52;;;;;;;4.88;3.60;;;;;;;24.30;88.67;99552.34;4969081;28;20236;-73
2023/07/09 06:43:19;;;;;;;6.25;3.55;;;;;;;24.46;88.65;99546.84;4949881;28;20241;-75
2023/07/09 06:45:52;;;;;;;5.55;3.65;;;;;;;24.67;87.52;99553.03;4949431;29;20203;-75
2023/07/09 06:48:19;;;;;;;3.60;3.20;;;;;;;24.90;88.56;99550.16;4949832;29;20217;-76
2023/07/09 06:50:46;;;;;;;5.03;3.47;;;;;;;25.12;86.18;99537.81;4949468;29;20203;-77
2023/07/09 06:53:13;;;;;;;4.53;3.20;;;;;;;25.30;81.39;99544.16;4954351;28;20688;-74
2023/07/09 06:55:41;;;;;;;4.20;3.13;;;;;;;25.52;83.20;99552.72;4967426;28;20213;-74
2023/07/09 06:58:08;;;;;;;4.57;3.00;;;;;;;25.68;80.11;99553.34;4968940;28;20679;-73
2023/07/09 07:00:35;;;;;;;4.20;3.05;;;;;;;25.89;84.64;99541.94;4968669;28;20217;-75
2023/07/09 07:03:05;;;;;;;4.82;3.22;;;;;;;26.15;79.52;99546.41;4964475;28;20207;-77
2023/07/09 07:05:32;;;;;;;3.47;3.03;;;;;;;26.30;75.64;99548.84;4959375;28;20216;-78
2023/07/09 07:07:59;;;;;;;4.05;2.90;;;;;;;26.32;70.21;99557.31;4968550;28;20206;-74
2023/07/09 07:10:26;;;;;;;3.42;2.92;;;;;;;26.66;77.93;99548.44;4965336;28;20217;-76
2023/07/09 07:12:53;;;;;;;4.22;2.65;;;;;;;26.86;75.25;99562.34;4950407;28;20234;-75
2023/07/09 07:15:20;;;;;;;3.38;2.60;;;;;;;27.04;71.33;99560.88;4957832;28;20218;-73
2023/07/09 07:17:47;;;;;;;3.42;2.83;;;;;;;27.03;68.60;99560.06;4971213;28;20199;-73
2023/07/09 07:20:17;;;;;;;3.92;2.40;;;;;;;27.04;66.88;99553.81;4969926;28;20217;-73
2023/07/09 07:22:44;;;;;;;3.50;2.65;;;;;;;27.22;65.15;99552.38;4973471;28;20210;-74
2023/07/09 07:25:12;;;;;;;10.02;5.07;;;;;;;27.39;71.72;99547.44;4972291;28;20201;-73
2023/07/09 07:27:39;;;;;;;8.75;4.00;;;;;;;27.53;62.54;99549.00;4959584;28;20211;-74
2023/07/09 07:30:08;;;;;;;10.50;6.00;;;;;;;27.64;73.58;99547.53;4953107;29;20203;-75
2023/07/09 07:32:37;;;;;;;5.68;3.10;;;;;;;27.70;60.17;99559.84;4952770;29;20242;-75
2023/07/09 07:35:04;;;;;;;3.33;2.28;;;;;;;27.62;56.96;99558.25;4957036;28;20260;-75
2023/07/09 07:37:32;;;;;;;6.18;2.60;;;;;;;27.73;64.49;99544.44;4971775;28;20202;-75
2023/07/09 07:39:59;;;;;;;4.22;2.75;;;;;;;27.64;59.70;99548.34;4971051;28;20206;-76
2023/07/09 07:42:26;;;;;;;4.68;3.03;;;;;;;27.95;64.64;99544.94;4971250;28;20205;-76
2023/07/09 07:44:53;;;;;;;5.22;3.33;;;;;;;27.98;60.26;99543.69;4971338;28;20198;-74
2023/07/09 07:47:20;;;;;;;5.72;2.80;;;;;;;28.21;56.72;99546.56;4969906;28;20210;-75
2023/07/09 07:49:47;;;;;;;6.18;3.22;;;;;;;28.36;60.93;99538.38;4971361;28;20198;-75
2023/07/09 07:52:14;;;;;;;3.75;2.90;;;;;;;28.49;63.79;99547.97;4969761;28;20210;-75
2023/07/09 07:54:42;;;;;;;3.53;2.67;;;;;;;28.55;58.83;99547.13;4954404;28;20207;-75
2023/07/09 07:57:10;;;;;;;3.45;2.80;;;;;;;28.72;56.81;99541.28;4951934;29;20207;-76
2023/07/09 07:59:37;;;;;;;3.08;2.50;;;;;;;28.67;59.34;99542.75;4952340;29;20207;-74
2023/07/09 08:02:05;;;;;;;3.67;2.30;;;;;;;28.61;53.32;99545.44;4951611;29;20203;-72
2023/07/09 08:04:32;;;;;;;5.03;2.90;;;;;;;28.64;55.92;99542.38;4951991;29;20203;-75
2023/07/09 08:06:59;;;;;;;4.05;2.65;;;;;;;28.69;57.32;99541.72;4952286;29;20271;-73
2023/07/09 08:09:26;;;;;;;3.38;2.70;;;;;;;28.84;57.63;99535.06;4950338;29;20575;-73
2023/07/09 08:11:54;;;;;;;4.22;3.00;;;;;;;29.01;52.75;99545.03;4952097;29;20214;-74
2023/07/09 08:14:22;;;;;;;5.78;3.03;;;;;;;29.10;53.31;99541.09;4951685;29;20249;-75
2023/07/09 08:16:49;;;;;;;3.17;2.72;;;;;;;29.29;52.71;99534.81;4950579;29;20700;-73
2023/07/09 08:19:20;;;;;;;4.32;2.40;;;;;;;29.49;55.23;99531.88;4951675;29;20222;-72
2023/07/09 08:21:47;;;;;;;3.22;2.60;;;;;;;29.61;56.04;99528.50;4951501;29;20195;-74
2023/07/09 08:24:15;;;;;;;3.97;2.90;;;;;;;29.72;51.81;99530.38;4948134;28;20622;-73
2023/07/09 08:26:42;;;;;;;3.78;2.60;;;;;;;29.88;54.24;99535.03;4950548;29;20266;-73
2023/07/09 08:29:10;;;;;;;3.10;2.65;;;;;;;30.07;54.04;99534.94;4949845;29;20210;-74
2023/07/09 08:31:37;;;;;;;3.67;2.88;;;;;;;29.98;50.29;99530.00;4950875;29;20590;-73
2023/07/09 08:34:06;;;;;;;4.00;3.00;;;;;;;29.69;51.06;99531.63;4949410;29;20843;-73
2023/07/09 08:36:33;;;;;;;3.92;2.97;;;;;;;29.63;53.60;99515.94;4945610;29;20211;-74
2023/07/09 08:39:02;;;;;;;4.32;2.78;;;;;;;29.72;49.26;99525.13;4951510;29;20199;-74
2023/07/09 08:41:40;;;;;;;3.05;2.70;;;;;;;29.78;49.59;99532.13;4940375;29;20220;-71
2023/07/09 08:44:29;;;;;;;4.35;3.10;;;;;;;29.80;51.27;99526.63;4951154;29;20234;-70
2023/07/09 08:47:03;;;;;;;5.05;3.38;;;;;;;29.91;51.10;99529.28;4947567;29;20680;-72
2023/07/09 08:49:39;;;;;;;3.42;2.95;;;;;;;29.86;54.57;99521.25;4947378;28;20233;-71
2023/07/09 08:52:14;;;;;;;4.50;2.88;;;;;;;29.93;50.48;99532.53;4949056;29;20226;-74
2023/07/09 08:54:44;;;;;;;4.40;3.20;;;;;;;29.89;52.02;99528.72;4949759;28;20237;-74
2023/07/09 08:57:20;;;;;;;3.92;2.65;;;;;;;30.16;52.65;99530.94;4949214;29;20293;-74
2023/07/09 08:59:50;;;;;;;3.67;2.70;;;;;;;30.13;48.72;99532.19;4946629;28;20606;-75
2023/07/09 09:02:32;;;;;;;3.97;3.00;;;;;;;30.34;56.38;99533.50;4949483;28;20217;-72
2023/07/09 09:04:59;;;;;;;3.72;2.80;;;;;;;30.28;49.30;99534.41;4954200;28;20207;-74
2023/07/09 09:07:39;;;;;;;5.97;3.00;;;;;;;30.53;50.81;99536.03;4950653;29;20213;-75
2023/07/09 09:10:07;;;;;;;3.58;2.85;;;;;;;30.42;49.19;99538.41;4950408;29;20523;-73
2023/07/09 09:12:39;;;;;;;3.58;2.90;;;;;;;30.67;54.24;99532.13;4950850;29;20191;-73
2023/07/09 09:15:15;;;;;;;5.03;3.00;;;;;;;30.54;49.61;99532.34;4946208;28;20202;-72
2023/07/09 09:17:43;;;;;;;5.10;3.10;;;;;;;30.78;54.41;99533.94;4948416;29;20668;-73
2023/07/09 09:20:17;;;;;;;4.00;2.90;;;;;;;30.83;53.00;99526.13;4950074;29;20210;-73
2023/07/09 09:22:49;;;;;;;3.05;2.75;;;;;;;31.07;50.48;99531.38;4946652;29;20227;-73
2023/07/09 09:25:23;;;;;;;4.20;3.05;;;;;;;31.16;51.23;99529.97;4950297;29;20206;-74
2023/07/09 09:27:51;;;;;;;4.60;3.05;;;;;;;31.55;57.74;99524.91;4947975;29;20205;-76
2023/07/09 09:30:23;;;;;;;4.95;2.80;;;;;;;31.58;46.34;99524.41;4948155;29;20207;-73
2023/07/09 09:32:54;;;;;;;4.07;3.00;;;;;;;31.48;45.26;99526.91;4946401;29;20614;-75
2023/07/09 09:35:26;;;;;;;4.07;3.08;;;;;;;31.69;44.78;99525.41;4947828;28;20215;-74
2023/07/09 09:37:55;;;;;;;3.42;2.75;;;;;;;31.73;48.45;99521.22;4950198;29;20203;-74
2023/07/09 09:40:23;;;;;;;4.05;2.97;;;;;;;31.75;44.80;99525.25;4950227;29;20578;-73
2023/07/09 09:42:50;;;;;;;3.83;3.10;;;;;;;31.70;45.55;99527.78;4950101;29;20281;-73
2023/07/09 09:45:21;;;;;;;3.47;2.90;;;;;;;31.77;47.90;99525.81;4948368;29;20221;-73
2023/07/09 09:47:49;;;;;;;5.85;2.70;;;;;;;31.96;46.84;99517.66;4950638;29;20210;-74
2023/07/09 09:50:17;;;;;;;3.72;2.72;;;;;;;31.96;41.96;99517.66;4949269;29;20199;-73
2023/07/09 09:52:45;;;;;;;3.22;2.47;;;;;;;31.88;46.49;99505.59;4945582;28;20206;-74
2023/07/09 09:55:18;;;;;;;3.35;2.72;;;;;;;31.88;46.62;99504.81;4950751;29;20266;-75
2023/07/09 09:57:49;;;;;;;3.47;2.70;;;;;;;31.96;43.85;99505.25;4950479;29;20211;-74
2023/07/09 10:00:17;;;;;;;9.55;2.67;;;;;;;31.73;43.58;99506.16;4950459;29;20195;-74
2023/07/09 10:02:46;;;;;;;3.75;2.40;;;;;;;31.73;41.70;99513.28;4950064;29;20289;-75
2023/07/09 10:05:14;;;;;;;3.72;2.65;;;;;;;31.74;44.52;99494.56;4949241;29;20213;-75
2023/07/09 10:07:48;;;;;;;3.60;2.67;;;;;;;31.90;44.40;99502.72;4945305;29;20273;-75
2023/07/09 10:10:21;;;;;;;3.88;2.80;;;;;;;32.04;43.63;99493.47;4930414;29;20580;-75
2023/07/09 10:12:52;;;;;;;4.00;2.90;;;;;;;31.96;45.10;99507.09;4931341;29;20196;-76
2023/07/09 10:15:29;;;;;;;4.93;2.97;;;;;;;32.25;46.94;99497.22;4931705;29;20203;-76
2023/07/09 10:18:04;;;;;;;4.55;2.78;;;;;;;32.58;49.08;99493.72;4931207;29;20211;-76
2023/07/09 10:20:37;;;;;;;5.53;2.78;;;;;;;32.35;43.89;99488.59;4930738;29;20227;-76
2023/07/09 10:23:15;;;;;;;4.55;2.60;;;;;;;32.48;43.33;99498.88;4930139;29;20690;-76
2023/07/09 10:25:54;;;;;;;4.32;2.90;;;;;;;32.52;47.82;99493.88;4942213;29;20210;-77
2023/07/09 10:28:39;;;;;;;5.57;2.85;;;;;;;32.25;43.48;99502.50;4948688;29;20210;-78
2023/07/09 10:31:18;;;;;;;3.40;2.50;;;;;;;32.06;43.88;99495.84;4949901;29;20289;-76
2023/07/09 10:33:59;;;;;;;5.00;2.70;;;;;;;32.02;43.80;99490.25;4949384;29;20242;-76
2023/07/09 10:36:37;;;;;;;3.85;2.92;;;;;;;32.22;45.22;99495.84;4949343;29;20202;-77
2023/07/09 10:39:09;;;;;;;6.25;3.78;;;;;;;32.60;43.48;99482.88;4945881;29;20509;-76
2023/07/09 10:41:39;;;;;;;9.90;6.00;;;;;;;32.48;41.49;99493.59;4949683;29;20221;-76
2023/07/09 10:44:12;;;;;;;19.42;8.90;;;;;;;31.99;41.08;99480.16;4939762;29;20298;-75
2023/07/09 10:46:43;;;;;;;39.60;17.55;;;;;;;32.21;46.10;99482.88;4950700;28;20199;-77
2023/07/09 10:49:15;;;;;;;18.75;10.05;;;;;;;32.19;42.84;99479.66;4950760;29;20203;-77
2023/07/09 10:51:48;;;;;;;17.13;9.55;;;;;;;32.08;42.34;99478.69;4952312;29;20443;-79
2023/07/09 10:54:24;;;;;;;37.08;16.63;;;;;;;32.29;44.00;99474.53;4952899;28;20253;-76
2023/07/09 10:56:59;;;;;;;19.85;10.32;;;;;;;32.16;44.31;99480.16;4951416;29;20214;-78
2023/07/09 10:59:32;;;;;;;12.68;6.85;;;;;;;32.12;42.26;99484.34;4951019;29;20202;-79
2023/07/09 11:02:13;;;;;;;5.05;3.17;;;;;;;32.33;43.06;99474.84;4949963;29;20217;-80
2023/07/09 11:04:47;;;;;;;3.17;2.83;;;;;;;32.22;44.47;99479.97;4952709;29;20223;-79
2023/07/09 11:07:21;;;;;;;5.57;2.58;;;;;;;32.13;41.12;99473.50;4953144;29;20274;-78
2023/07/09 11:09:51;;;;;;;5.70;2.50;;;;;;;31.90;43.10;99465.72;4951136;29;20282;-78
2023/07/09 11:12:25;;;;;;;3.35;2.55;;;;;;;31.78;44.37;99474.53;4953210;29;20199;-80
2023/07/09 11:14:57;;;;;;;2.92;2.50;;;;;;;31.70;44.01;99461.69;4951044;29;20655;-81
2023/07/09 11:17:24;;;;;;;3.85;2.63;;;;;;;31.89;42.83;99464.13;4949113;28;20210;-79
2023/07/09 11:20:01;;;;;;;3.58;2.40;;;;;;;31.96;42.86;99464.78;4955441;29;20202;-77
2023/07/09 11:22:38;;;;;;;4.60;2.65;;;;;;;32.18;45.37;99463.00;4953099;29;20201;-78
2023/07/09 11:25:08;;;;;;;3.40;2.40;;;;;;;31.99;41.41;99459.00;4950295;29;20684;-78
2023/07/09 11:27:47;;;;;;;2.97;2.40;;;;;;;32.14;43.24;99461.84;4952627;29;20566;-78
2023/07/09 11:30:23;;;;;;;4.32;3.10;;;;;;;32.22;45.11;99469.38;4947369;29;20491;-77
2023/07/09 11:32:55;;;;;;;4.18;2.58;;;;;;;32.40;43.87;99457.72;4948862;29;20250;-76
2023/07/09 11:35:25;;;;;;;2.78;2.38;;;;;;;32.50;41.33;99458.94;4952472;29;20755;-81
2023/07/09 11:37:54;;;;;;;3.70;2.88;;;;;;;32.71;44.74;99460.00;4952412;29;20594;-77
2023/07/09 11:40:22;;;;;;;4.57;2.80;;;;;;;32.62;45.41;99460.41;4952576;29;20685;-78
2023/07/09 11:42:54;;;;;;;3.20;2.55;;;;;;;32.75;44.54;99461.09;4952072;29;20207;-78
2023/07/09 11:45:27;;;;;;;5.18;2.85;;;;;;;32.67;41.20;99454.38;4951668;29;20207;-74
2023/07/09 11:48:03;;;;;;;3.40;2.67;;;;;;;32.70;43.63;99464.50;4951400;29;20290;-78
2023/07/09 11:50:36;;;;;;;3.72;2.75;;;;;;;32.42;41.70;99468.06;4949587;29;20765;-88
2023/07/09 11:53:16;;;;;;;4.07;2.58;;;;;;;32.36;43.63;99453.16;4952281;28;20282;-85
2023/07/09 11:55:45;;;;;;;4.20;2.92;;;;;;;32.32;44.07;99452.03;4954092;28;20242;-82
2023/07/09 11:58:14;;;;;;;3.50;2.72;;;;;;;32.03;42.13;99454.84;4954479;28;20242;-81
2023/07/09 12:00:45;;;;;;;5.70;3.08;;;;;;;32.22;44.95;99453.50;4951757;29;20199;-81
2023/07/09 12:03:18;;;;;;;3.45;2.60;;;;;;;32.29;42.30;99457.81;4951294;29;20210;-81
2023/07/09 12:05:51;;;;;;;3.35;2.85;;;;;;;32.10;43.54;99444.88;4949318;29;20211;-80
2023/07/09 12:08:19;;;;;;;3.38;2.53;;;;;;;32.10;43.99;99450.16;4948381;29;20207;-78
2023/07/09 12:10:46;;;;;;;4.25;3.03;;;;;;;32.34;46.05;99444.66;4951870;29;20215;-82
2023/07/09 12:13:13;;;;;;;4.57;2.92;;;;;;;32.38;44.86;99435.22;4951956;29;20656;-82
2023/07/09 12:15:40;;;;;;;3.88;2.67;;;;;;;32.29;43.75;99440.13;4951592;29;20238;-79
2023/07/09 12:18:12;;;;;;;4.40;2.90;;;;;;;31.96;42.34;99443.63;4951680;29;20592;-78
2023/07/09 12:20:41;;;;;;;5.45;2.80;;;;;;;31.96;43.12;99443.63;4951652;29;20618;-75
2023/07/09 12:23:23;;;;;;;4.32;2.97;;;;;;;31.95;43.57;99442.03;4947897;29;20570;-76
2023/07/09 12:25:51;;;;;;;5.45;2.80;;;;;;;31.97;44.61;99435.44;4949280;29;20209;-79
2023/07/09 12:28:19;;;;;;;3.35;2.90;;;;;;;32.14;43.16;99435.41;4951293;29;20209;-75
2023/07/09 12:30:47;;;;;;;3.33;2.90;;;;;;;32.39;48.50;99431.50;4950030;28;20210;-78
2023/07/09 12:33:18;;;;;;;3.40;2.80;;;;;;;32.51;44.37;99426.91;4951516;29;20203;-78
2023/07/09 12:35:45;;;;;;;5.88;3.17;;;;;;;32.07;42.06;99429.50;4945542;29;20226;-76